createdAt,value
2024-04-22T00:02:16.817Z,94396.53
2024-04-22T00:04:43.872Z,94407.28
2024-04-22T00:07:12.742Z,94406.38
2024-04-22T00:09:40.268Z,94404.34
2024-04-22T00:12:07.936Z,94397.59
2024-04-22T00:14:35.009Z,94405.63
2024-04-22T00:17:03.463Z,94409.47
2024-04-22T00:19:30.632Z,94414.13
2024-04-22T00:21:57.740Z,94421.19
2024-04-22T00:24:24.863Z,94418.00
2024-04-22T00:26:51.929Z,94406.00
2024-04-22T00:29:19.044Z,94429.88
2024-04-22T00:31:46.136Z,94424.44
2024-04-22T00:34:13.412Z,94420.44
2024-04-22T00:36:40.556Z,94417.69
2024-04-22T00:39:07.569Z,94407.59
2024-04-22T00:41:36.573Z,94429.56
2024-04-22T00:44:03.877Z,94435.03
2024-04-22T00:46:31.089Z,94428.28
2024-04-22T00:48:58.509Z,94432.59
2024-04-22T00:51:26.323Z,94432.13
2024-04-22T00:53:54.788Z,94430.84
2024-04-22T00:56:21.958Z,94432.28
2024-04-22T00:58:50.163Z,94419.97
2024-04-22T01:01:18.816Z,94439.66
2024-04-22T01:03:46.416Z,94439.97
2024-04-22T01:06:13.549Z,94440.00
2024-04-22T01:08:40.588Z,94435.34
2024-04-22T01:11:07.803Z,94431.00
2024-04-22T01:13:35.040Z,94433.06
2024-04-22T01:16:02.201Z,94439.34
2024-04-22T01:18:29.270Z,94429.56
2024-04-22T01:20:57.762Z,94433.72
2024-04-22T01:23:24.803Z,94431.63
2024-04-22T01:25:56.907Z,94444.78
2024-04-22T01:28:24.143Z,94437.56
2024-04-22T01:30:51.524Z,94443.81
2024-04-22T01:33:18.734Z,94445.91
2024-04-22T01:35:45.947Z,94448.78
2024-04-22T01:38:13.575Z,94446.38
2024-04-22T01:40:40.761Z,94449.72
2024-04-22T01:43:07.865Z,94447.81
2024-04-22T01:45:35.047Z,94443.00
2024-04-22T01:48:02.199Z,94439.00
2024-04-22T01:50:29.295Z,94432.28
2024-04-22T01:52:56.815Z,94443.66
2024-04-22T01:55:24.934Z,94443.47
2024-04-22T01:57:52.114Z,94446.03
2024-04-22T02:00:19.356Z,94443.50
2024-04-22T02:02:46.443Z,94434.53
2024-04-22T02:05:13.638Z,94438.84
2024-04-22T02:07:40.753Z,94432.44
2024-04-22T02:10:17.580Z,94439.00
2024-04-22T02:12:50.531Z,94443.47
2024-04-22T02:15:17.581Z,94433.72
2024-04-22T02:17:44.768Z,94436.44
2024-04-22T02:20:11.892Z,94439.66
2024-04-22T02:22:39.189Z,94439.97
2024-04-22T02:25:06.461Z,94430.69
2024-04-22T02:27:33.583Z,94431.97
2024-04-22T02:30:00.684Z,94433.56
2024-04-22T02:32:30.984Z,94429.72
2024-04-22T02:34:58.313Z,94433.72
2024-04-22T02:37:25.450Z,94436.75
2024-04-22T02:39:52.603Z,94428.13
2024-04-22T02:42:19.627Z,94422.50
2024-04-22T02:44:46.771Z,94431.63
2024-04-22T02:47:13.841Z,94428.13
2024-04-22T02:49:41.096Z,94426.19
2024-04-22T02:52:08.410Z,94428.44
2024-04-22T02:54:35.696Z,94431.16
2024-04-22T02:57:02.777Z,94441.88
2024-04-22T02:59:30.758Z,94432.41
2024-04-22T03:01:57.902Z,94435.31
2024-04-22T03:04:25.014Z,94435.78
2024-04-22T03:06:52.039Z,94428.09
2024-04-22T03:09:19.108Z,94427.78
2024-04-22T03:11:47.500Z,94415.78
2024-04-22T03:14:14.691Z,94417.88
2024-04-22T03:16:41.966Z,94414.00
2024-04-22T03:19:09.157Z,94411.59
2024-04-22T03:21:36.543Z,94404.72
2024-04-22T03:24:04.554Z,94411.09
2024-04-22T03:26:31.709Z,94411.72
2024-04-22T03:28:59.017Z,94416.38
2024-04-22T03:31:26.361Z,94412.22
2024-04-22T03:33:53.506Z,94411.56
2024-04-22T03:36:20.561Z,94409.94
2024-04-22T03:38:47.781Z,94417.13
2024-04-22T03:41:15.245Z,94419.50
2024-04-22T03:43:42.394Z,94410.41
2024-04-22T03:46:27.826Z,94424.63
2024-04-22T03:49:13.704Z,94425.06
2024-04-22T03:51:41.068Z,94423.63
2024-04-22T03:54:08.281Z,94420.72
2024-04-22T03:56:35.427Z,94419.91
2024-04-22T03:59:02.507Z,94414.34
2024-04-22T04:01:29.669Z,94412.72
2024-04-22T04:03:58.457Z,94415.44
2024-04-22T04:06:25.657Z,94421.84
2024-04-22T04:08:52.637Z,94423.91
2024-04-22T04:11:24.583Z,94417.69
2024-04-22T04:13:51.629Z,94415.97
2024-04-22T04:16:18.791Z,94415.44
2024-04-22T04:18:47.387Z,94410.03
2024-04-22T04:21:14.465Z,94430.25
2024-04-22T04:23:41.501Z,94423.28
2024-04-22T04:26:08.598Z,94424.22
2024-04-22T04:28:35.813Z,94420.66
2024-04-22T04:31:03.058Z,94437.19
2024-04-22T04:33:30.071Z,94441.69
2024-04-22T04:36:04.473Z,94447.50
2024-04-22T04:38:36.419Z,94452.31
2024-04-22T04:41:04.431Z,94456.97
2024-04-22T04:43:32.507Z,94460.34
2024-04-22T04:45:59.996Z,94452.69
2024-04-22T04:48:27.454Z,94458.97
2024-04-22T04:50:54.816Z,94454.00
2024-04-22T04:53:22.954Z,94462.03
2024-04-22T04:55:50.545Z,94461.75
2024-04-22T04:58:18.975Z,94453.91
2024-04-22T05:00:46.750Z,94456.94
2024-04-22T05:03:13.931Z,94447.31
2024-04-22T05:05:41.531Z,94443.44
2024-04-22T05:08:08.682Z,94446.31
2024-04-22T05:10:36.160Z,94447.78
2024-04-22T05:13:03.339Z,94439.78
2024-04-22T05:15:30.400Z,94439.19
2024-04-22T05:17:57.574Z,94428.47
2024-04-22T05:20:24.684Z,94422.66
2024-04-22T05:22:51.783Z,94418.94
2024-04-22T05:25:18.881Z,94386.97
2024-04-22T05:27:46.098Z,94386.19
2024-04-22T05:30:13.448Z,94376.28
2024-04-22T05:32:40.823Z,94366.09
2024-04-22T05:35:26.478Z,94369.22
2024-04-22T05:37:53.573Z,94359.38
2024-04-22T05:40:20.933Z,94345.22
2024-04-22T05:42:48.099Z,94300.78
2024-04-22T05:45:15.451Z,94285.31
2024-04-22T05:47:42.607Z,94269.47
2024-04-22T05:50:09.723Z,94267.38
2024-04-22T05:52:36.933Z,94260.41
2024-04-22T05:55:05.685Z,94257.63
2024-04-22T05:57:32.809Z,94246.38
2024-04-22T05:59:59.955Z,94241.19
2024-04-22T06:02:27.250Z,94239.22
2024-04-22T06:04:54.692Z,94224.53
2024-04-22T06:07:22.704Z,94229.13
2024-04-22T06:09:49.810Z,94224.50
2024-04-22T06:12:19.714Z,94220.56
2024-04-22T06:14:47.560Z,94223.44
2024-04-22T06:17:14.863Z,94206.88
2024-04-22T06:19:42.306Z,94201.69
2024-04-22T06:22:09.820Z,94207.16
2024-04-22T06:24:36.889Z,94189.69
2024-04-22T06:27:04.429Z,94200.53
2024-04-22T06:29:31.553Z,94183.69
2024-04-22T06:31:58.878Z,94179.56
2024-04-22T06:34:26.121Z,94194.31
2024-04-22T06:36:53.347Z,94198.94
2024-04-22T06:39:22.216Z,94183.00
2024-04-22T06:41:49.353Z,94182.75
2024-04-22T06:44:16.482Z,94155.25
2024-04-22T06:46:43.637Z,94157.50
2024-04-22T06:49:10.915Z,94160.22
2024-04-22T06:51:38.034Z,94150.28
2024-04-22T06:54:05.716Z,94150.84
2024-04-22T06:56:32.819Z,94153.50
2024-04-22T06:58:59.969Z,94154.88
2024-04-22T07:01:35.015Z,94140.28
2024-04-22T07:04:07.125Z,94137.84
2024-04-22T07:06:34.338Z,94140.22
2024-04-22T07:09:11.244Z,94136.38
2024-04-22T07:11:38.901Z,94124.59
2024-04-22T07:14:10.489Z,94124.00
2024-04-22T07:16:41.049Z,94129.34
2024-04-22T07:19:08.279Z,94124.88
2024-04-22T07:21:35.325Z,94116.28
2024-04-22T07:24:02.629Z,94124.72
2024-04-22T07:26:29.793Z,94119.75
2024-04-22T07:28:57.201Z,94123.84
2024-04-22T07:31:24.719Z,94123.69
2024-04-22T07:33:52.175Z,94119.81
2024-04-22T07:36:27.081Z,94113.09
2024-04-22T07:38:55.499Z,94119.28
2024-04-22T07:41:23.014Z,94116.56
2024-04-22T07:43:50.202Z,94119.81
2024-04-22T07:46:17.455Z,94117.06
2024-04-22T07:48:44.620Z,94111.13
2024-04-22T07:51:11.896Z,94109.53
2024-04-22T07:53:39.326Z,94112.38
2024-04-22T07:56:16.541Z,94111.59
2024-04-22T07:58:45.172Z,94111.78
2024-04-22T08:01:16.111Z,94108.88
2024-04-22T08:03:43.839Z,94099.47
2024-04-22T08:06:13.672Z,94095.28
2024-04-22T08:08:41.049Z,94096.66
2024-04-22T08:11:08.496Z,94097.22
2024-04-22T08:13:35.815Z,94100.28
2024-04-22T08:16:03.015Z,94103.94
2024-04-22T08:18:30.881Z,94106.97
2024-04-22T08:20:57.990Z,94095.81
2024-04-22T08:23:25.652Z,94102.78
2024-04-22T08:25:54.304Z,94100.09
2024-04-22T08:28:21.398Z,94105.28
2024-04-22T08:30:48.531Z,94114.81
2024-04-22T08:33:15.667Z,94109.84
2024-04-22T08:35:49.333Z,94121.00
2024-04-22T08:38:16.380Z,94127.47
2024-04-22T08:40:45.341Z,94116.66
2024-04-22T08:43:15.740Z,94118.59
2024-04-22T08:45:46.821Z,94116.06
2024-04-22T08:48:14.028Z,94123.25
2024-04-22T08:50:42.060Z,94116.50
2024-04-22T08:53:10.477Z,94117.06
2024-04-22T08:55:38.590Z,94117.69
2024-04-22T08:58:06.946Z,94108.03
2024-04-22T09:00:34.201Z,94108.78
2024-04-22T09:03:02.016Z,94111.03
2024-04-22T09:05:29.892Z,94108.69
2024-04-22T09:08:05.272Z,94121.69
2024-04-22T09:11:05.636Z,94110.44
2024-04-22T09:13:21.229Z,94097.97
2024-04-22T09:15:55.146Z,94110.44
2024-04-22T09:18:25.705Z,94100.31
2024-04-22T09:20:54.966Z,94104.31
2024-04-22T09:23:22.649Z,94102.75
2024-04-22T09:25:49.882Z,94086.88
2024-04-22T09:28:20.889Z,94100.34
2024-04-22T09:30:53.304Z,94093.41
2024-04-22T09:33:24.930Z,94087.66
2024-04-22T09:35:53.408Z,94078.28
2024-04-22T09:38:31.348Z,94075.59
2024-04-22T09:41:07.602Z,94063.69
2024-04-22T09:43:39.153Z,94067.34
2024-04-22T09:46:07.261Z,94069.47
2024-04-22T09:48:35.549Z,94070.44
2024-04-22T09:51:04.109Z,94053.91
2024-04-22T09:53:31.893Z,94058.78
2024-04-22T09:56:04.143Z,94053.50
2024-04-22T09:58:33.321Z,94035.16
2024-04-22T10:01:00.646Z,94040.06
2024-04-22T10:03:28.906Z,94035.50
2024-04-22T10:05:59.842Z,94028.31
2024-04-22T10:08:29.613Z,94029.75
2024-04-22T10:11:10.653Z,94026.38
2024-04-22T10:13:38.564Z,94018.88
2024-04-22T10:16:06.648Z,94019.03
2024-04-22T10:18:34.489Z,94026.19
2024-04-22T10:21:05.275Z,94020.78
2024-04-22T10:23:35.407Z,94016.50
2024-04-22T10:26:02.691Z,94018.91
2024-04-22T10:28:29.770Z,94015.53
2024-04-22T10:30:58.229Z,94016.41
2024-04-22T10:33:25.404Z,94014.88
2024-04-22T10:35:52.532Z,94012.59
2024-04-22T10:38:19.613Z,94012.69
2024-04-22T10:40:46.876Z,94012.72
2024-04-22T10:43:14.167Z,94010.25
2024-04-22T10:45:41.467Z,94015.09
2024-04-22T10:48:15.453Z,94008.66
2024-04-22T10:50:48.157Z,94012.31
2024-04-22T10:53:15.369Z,94009.50
2024-04-22T10:55:42.634Z,94006.09
2024-04-22T10:58:10.989Z,93999.09
2024-04-22T11:00:39.147Z,93993.50
2024-04-22T11:03:06.661Z,93984.59
2024-04-22T11:05:35.080Z,93982.94
2024-04-22T11:08:03.496Z,93983.75
2024-04-22T11:10:37.526Z,93998.34
2024-04-22T11:13:10.092Z,93996.59
2024-04-22T11:15:37.360Z,93976.28
2024-04-22T11:18:08.816Z,93995.81
2024-04-22T11:20:37.463Z,93989.88
2024-04-22T11:23:05.912Z,93989.88
2024-04-22T11:25:33.441Z,93978.09
2024-04-22T11:28:01.581Z,93976.88
2024-04-22T11:30:29.720Z,93972.03
2024-04-22T11:32:57.380Z,93963.97
2024-04-22T11:35:24.705Z,93953.31
2024-04-22T11:37:55.100Z,93949.78
2024-04-22T11:40:22.400Z,93958.16
2024-04-22T11:42:49.564Z,93959.59
2024-04-22T11:45:16.776Z,93949.94
2024-04-22T11:47:44.054Z,93952.13
2024-04-22T11:50:11.212Z,93951.34
2024-04-22T11:52:39.043Z,93948.34
2024-04-22T11:55:06.553Z,93961.16
2024-04-22T11:57:33.667Z,93952.06
2024-04-22T12:00:00.816Z,93946.03
2024-04-22T12:02:27.898Z,93943.78
2024-04-22T12:04:55.968Z,93937.88
2024-04-22T12:07:23.312Z,93945.63
2024-04-22T12:09:50.439Z,93934.78
2024-04-22T12:12:17.578Z,93942.03
2024-04-22T12:14:44.777Z,93943.53
2024-04-22T12:17:13.001Z,93949.13
2024-04-22T12:19:40.156Z,93951.88
2024-04-22T12:22:07.283Z,93944.38
2024-04-22T12:24:34.471Z,93943.94
2024-04-22T12:27:03.181Z,93949.72
2024-04-22T12:29:32.124Z,93936.47
2024-04-22T12:31:59.949Z,93941.81
2024-04-22T12:34:27.137Z,93938.56
2024-04-22T12:36:54.478Z,93936.38
2024-04-22T12:39:21.460Z,93938.66
2024-04-22T12:41:48.554Z,93936.03
2024-04-22T12:44:15.598Z,93916.00
2024-04-22T12:47:03.041Z,93927.03
2024-04-22T12:49:51.976Z,93935.59
2024-04-22T12:52:21.929Z,93919.22
2024-04-22T12:54:49.142Z,93914.03
2024-04-22T12:57:16.328Z,93915.19
2024-04-22T12:59:43.400Z,93911.56
2024-04-22T13:02:13.219Z,93907.41
2024-04-22T13:04:40.637Z,93899.25
2024-04-22T13:07:07.807Z,93900.19
2024-04-22T13:09:36.796Z,93889.22
2024-04-22T13:12:04.488Z,93899.72
2024-04-22T13:14:31.575Z,93889.94
2024-04-22T13:16:58.724Z,93898.91
2024-04-22T13:19:26.064Z,93907.63
2024-04-22T13:21:53.573Z,93902.06
2024-04-22T13:24:21.200Z,93890.28
2024-04-22T13:26:48.860Z,93891.22
2024-04-22T13:29:15.952Z,93883.38
2024-04-22T13:31:47.344Z,93884.22
2024-04-22T13:34:19.104Z,93887.78
2024-04-22T13:36:46.371Z,93883.63
2024-04-22T13:39:13.588Z,93871.63
2024-04-22T13:41:40.780Z,93861.44
2024-04-22T13:44:07.886Z,93863.41
2024-04-22T13:46:35.833Z,93866.22
2024-04-22T13:49:03.004Z,93880.88
2024-04-22T13:51:30.261Z,93878.06
2024-04-22T13:53:57.414Z,93879.03
2024-04-22T13:56:24.408Z,93876.13
2024-04-22T13:58:51.519Z,93881.69
2024-04-22T14:01:18.661Z,93877.38
2024-04-22T14:03:48.260Z,93867.78
2024-04-22T14:06:15.323Z,93875.44
2024-04-22T14:08:42.559Z,93874.72
2024-04-22T14:11:13.023Z,93884.69
2024-04-22T14:13:40.276Z,93890.81
2024-04-22T14:16:07.759Z,93889.97
2024-04-22T14:18:34.901Z,93892.63
2024-04-22T14:21:02.177Z,93892.38
2024-04-22T14:23:29.312Z,93890.50
2024-04-22T14:25:56.579Z,93897.28
2024-04-22T14:28:25.700Z,93898.66
2024-04-22T14:30:52.759Z,93891.50
2024-04-22T14:33:23.417Z,93893.78
2024-04-22T14:35:51.407Z,93889.94
2024-04-22T14:38:18.611Z,93894.44
2024-04-22T14:40:45.798Z,93899.06
2024-04-22T14:43:13.045Z,93906.56
2024-04-22T14:45:41.142Z,93906.56
2024-04-22T14:48:08.876Z,93911.13
2024-04-22T14:50:36.091Z,93904.81
2024-04-22T14:53:07.072Z,93913.41
2024-04-22T14:55:38.716Z,93906.19
2024-04-22T14:58:05.913Z,93909.28
2024-04-22T15:00:33.045Z,93913.72
2024-04-22T15:03:02.009Z,93921.25
2024-04-22T15:05:32.492Z,93915.78
2024-04-22T15:07:59.749Z,93913.47
2024-04-22T15:10:26.917Z,93929.75
2024-04-22T15:12:54.121Z,93926.50
2024-04-22T15:15:21.259Z,93929.84
2024-04-22T15:17:48.637Z,93931.22
2024-04-22T15:20:15.850Z,93935.31
2024-04-22T15:22:42.977Z,93949.44
2024-04-22T15:25:10.128Z,93942.75
2024-04-22T15:27:37.169Z,93958.31
2024-04-22T15:30:04.762Z,93947.66
2024-04-22T15:32:32.011Z,93952.63
2024-04-22T15:34:59.169Z,93960.91
2024-04-22T15:37:26.305Z,93957.00
2024-04-22T15:39:53.349Z,93969.03
2024-04-22T15:42:20.524Z,93973.84
2024-04-22T15:44:47.751Z,93973.47
2024-04-22T15:47:14.894Z,93972.41
2024-04-22T15:49:42.068Z,93967.84
2024-04-22T15:52:09.251Z,93980.09
2024-04-22T15:54:36.559Z,93983.25
2024-04-22T15:57:03.768Z,93980.47
2024-04-22T15:59:30.889Z,93976.44
2024-04-22T16:01:58.054Z,93985.84
2024-04-22T16:04:25.316Z,93989.47
2024-04-22T16:06:52.428Z,93986.09
2024-04-22T16:09:19.565Z,93985.78
2024-04-22T16:11:46.725Z,93981.41
2024-04-22T16:14:16.077Z,93986.97
2024-04-22T16:16:43.272Z,94002.25
2024-04-22T16:19:11.069Z,94000.66
2024-04-22T16:21:38.215Z,93998.06
2024-04-22T16:24:05.536Z,93961.91
2024-04-22T16:26:32.628Z,93995.66
2024-04-22T16:29:00.977Z,94006.78
2024-04-22T16:31:28.202Z,94005.25
2024-04-22T16:33:55.423Z,94008.03
2024-04-22T16:36:22.566Z,94003.66
2024-04-22T16:38:49.666Z,93990.97
2024-04-22T16:41:16.838Z,94005.22
2024-04-22T16:43:44.003Z,94002.31
2024-04-22T16:46:11.238Z,94014.81
2024-04-22T16:48:40.266Z,94015.81
2024-04-22T16:51:07.601Z,94011.03
2024-04-22T16:53:34.740Z,94006.84
2024-04-22T16:56:01.956Z,94012.84
2024-04-22T16:58:32.889Z,94013.03
2024-04-22T17:01:00.325Z,93988.59
2024-04-22T17:03:30.235Z,93986.81
2024-04-22T17:05:57.770Z,93996.94
2024-04-22T17:08:24.895Z,93991.38
2024-04-22T17:10:52.029Z,94006.66
2024-04-22T17:13:19.346Z,94000.13
2024-04-22T17:15:46.775Z,93994.75
2024-04-22T17:18:14.129Z,94009.25
2024-04-22T17:20:41.280Z,94009.84
2024-04-22T17:23:18.407Z,94004.28
2024-04-22T17:25:45.725Z,94014.22
2024-04-22T17:28:13.019Z,94019.53
2024-04-22T17:30:40.159Z,94017.53
2024-04-22T17:33:07.452Z,94017.50
2024-04-22T17:35:34.662Z,94027.06
2024-04-22T17:38:01.795Z,94016.38
2024-04-22T17:40:28.903Z,94023.91
2024-04-22T17:42:56.050Z,94012.00
2024-04-22T17:45:23.373Z,94033.38
2024-04-22T17:47:50.582Z,94035.09
2024-04-22T17:50:17.708Z,94043.63
2024-04-22T17:52:44.910Z,94044.91
2024-04-22T17:55:12.149Z,94049.16
2024-04-22T17:57:40.890Z,94063.97
2024-04-22T18:00:09.283Z,94063.31
2024-04-22T18:02:36.466Z,94066.41
2024-04-22T18:05:03.850Z,94098.56
2024-04-22T18:07:31.029Z,94121.72
2024-04-22T18:09:58.154Z,94132.09
2024-04-22T18:12:25.379Z,94127.44
2024-04-22T18:14:52.537Z,94134.19
2024-04-22T18:17:19.922Z,94147.31
2024-04-22T18:19:47.094Z,94143.63
2024-04-22T18:22:17.740Z,94151.97
2024-04-22T18:24:48.702Z,94132.22
2024-04-22T18:27:15.968Z,94141.66
2024-04-22T18:29:43.105Z,94136.88
2024-04-22T18:32:10.351Z,94130.94
2024-04-22T18:34:38.390Z,94138.28
2024-04-22T18:37:05.681Z,94135.72
2024-04-22T18:39:33.084Z,94138.00
2024-04-22T18:42:00.349Z,94137.94
2024-04-22T18:44:27.689Z,94149.59
2024-04-22T18:46:54.967Z,94153.78
2024-04-22T18:49:22.234Z,94149.41
2024-04-22T18:51:49.442Z,94156.41
2024-04-22T18:54:16.735Z,94157.06
2024-04-22T18:56:43.825Z,94161.56
2024-04-22T18:59:11.098Z,94184.56
2024-04-22T19:01:38.321Z,94185.63
2024-04-22T19:04:05.819Z,94172.16
2024-04-22T19:06:32.977Z,94177.41
2024-04-22T19:09:00.122Z,94174.63
2024-04-22T19:11:27.957Z,94165.09
2024-04-22T19:13:56.262Z,94166.56
2024-04-22T19:16:23.445Z,94170.63
2024-04-22T19:18:50.609Z,94161.03
2024-04-22T19:21:17.711Z,94149.84
2024-04-22T19:23:44.853Z,94157.16
2024-04-22T19:26:12.478Z,94158.28
2024-04-22T19:28:39.757Z,94165.66
2024-04-22T19:31:07.850Z,94163.50
2024-04-22T19:33:35.114Z,94160.75
2024-04-22T19:36:02.499Z,94175.78
2024-04-22T19:38:29.630Z,94180.44
2024-04-22T19:40:56.783Z,94171.63
2024-04-22T19:43:24.625Z,94181.44
2024-04-22T19:45:51.791Z,94186.63
2024-04-22T19:48:19.127Z,94183.34
2024-04-22T19:50:47.093Z,94172.47
2024-04-22T19:53:14.936Z,94177.84
2024-04-22T19:55:43.902Z,94183.41
2024-04-22T19:58:11.713Z,94174.00
2024-04-22T20:00:38.885Z,94176.31
2024-04-22T20:03:06.498Z,94166.38
2024-04-22T20:05:33.950Z,94160.44
2024-04-22T20:08:01.252Z,94167.34
2024-04-22T20:10:28.425Z,94168.94
2024-04-22T20:12:55.631Z,94174.69
2024-04-22T20:15:41.378Z,94188.31
2024-04-22T20:18:14.617Z,94191.06
2024-04-22T20:20:42.198Z,94183.59
2024-04-22T20:23:09.414Z,94183.63
2024-04-22T20:25:36.854Z,94187.56
2024-04-22T20:28:04.094Z,94193.56
2024-04-22T20:30:31.275Z,94194.50
2024-04-22T20:32:58.598Z,94193.13
2024-04-22T20:35:25.800Z,94197.88
2024-04-22T20:37:54.799Z,94178.91
2024-04-22T20:40:22.077Z,94174.00
2024-04-22T20:42:49.119Z,94188.91
2024-04-22T20:45:16.333Z,94177.28
2024-04-22T20:47:43.491Z,94164.78
2024-04-22T20:50:10.698Z,94168.13
2024-04-22T20:52:38.282Z,94176.03
2024-04-22T20:55:06.542Z,94177.81
2024-04-22T20:57:33.899Z,94177.38
2024-04-22T21:00:01.220Z,94160.59
2024-04-22T21:02:28.377Z,94169.53
2024-04-22T21:04:55.499Z,94150.41
2024-04-22T21:07:22.692Z,94146.91
2024-04-22T21:09:49.842Z,94147.41
2024-04-22T21:12:18.037Z,94150.16
2024-04-22T21:14:45.120Z,94159.91
2024-04-22T21:17:12.394Z,94181.03
2024-04-22T21:19:39.492Z,94182.47
2024-04-22T21:22:06.759Z,94186.59
2024-04-22T21:24:33.914Z,94184.75
2024-04-22T21:27:01.104Z,94186.69
2024-04-22T21:29:28.204Z,94193.88
2024-04-22T21:31:55.438Z,94194.91
2024-04-22T21:34:22.762Z,94201.66
2024-04-22T21:36:50.246Z,94210.34
2024-04-22T21:39:17.468Z,94201.66
2024-04-22T21:41:44.674Z,94207.50
2024-04-22T21:44:12.887Z,94217.81
2024-04-22T21:46:40.152Z,94215.84
2024-04-22T21:49:07.204Z,94214.63
2024-04-22T21:51:34.349Z,94214.44
2024-04-22T21:54:01.454Z,94216.97
2024-04-22T21:56:28.395Z,94216.50
2024-04-22T21:59:33.701Z,94221.34
2024-04-22T22:02:38.573Z,94223.66
2024-04-22T22:05:43.510Z,94229.38
2024-04-22T22:08:10.719Z,94230.69
2024-04-22T22:10:40.217Z,94222.66
2024-04-22T22:13:08.057Z,94220.16
2024-04-22T22:15:35.255Z,94223.47
2024-04-22T22:18:02.751Z,94219.06
2024-04-22T22:20:30.115Z,94218.56
2024-04-22T22:22:57.526Z,94223.81
2024-04-22T22:25:26.944Z,94236.28
2024-04-22T22:27:54.214Z,94236.91
2024-04-22T22:30:21.324Z,94234.63
2024-04-22T22:32:48.536Z,94241.25
2024-04-22T22:35:15.608Z,94243.66
2024-04-22T22:37:42.840Z,94247.47
2024-04-22T22:40:11.068Z,94256.41
2024-04-22T22:42:38.377Z,94265.94
2024-04-22T22:45:06.046Z,94275.78
2024-04-22T22:47:33.249Z,94270.69
2024-04-22T22:50:00.446Z,94277.19
2024-04-22T22:52:27.642Z,94272.28
2024-04-22T22:54:54.712Z,94268.69
2024-04-22T22:57:21.852Z,94268.22
2024-04-22T22:59:49.020Z,94271.66
2024-04-22T23:02:16.144Z,94269.84
2024-04-22T23:04:43.287Z,94264.13
2024-04-22T23:07:10.458Z,94272.81
2024-04-22T23:09:37.568Z,94272.63
2024-04-22T23:12:04.876Z,94270.13
2024-04-22T23:14:31.967Z,94276.44
2024-04-22T23:16:59.160Z,94287.88
2024-04-22T23:19:26.347Z,94286.09
2024-04-22T23:21:53.407Z,94292.75
2024-04-22T23:24:20.451Z,94295.25
2024-04-22T23:26:51.499Z,94284.06
2024-04-22T23:29:18.986Z,94288.06
2024-04-22T23:31:46.190Z,94289.53
2024-04-22T23:34:13.315Z,94287.38
2024-04-22T23:36:50.101Z,94287.03
2024-04-22T23:39:17.966Z,94289.44
2024-04-22T23:41:45.185Z,94265.31
2024-04-22T23:44:12.760Z,94266.97
2024-04-22T23:46:53.006Z,94262.72
2024-04-22T23:49:20.534Z,94271.50
2024-04-22T23:51:48.374Z,94275.25
2024-04-22T23:54:15.716Z,94272.28
2024-04-22T23:56:42.796Z,94263.25
2024-04-22T23:59:09.916Z,94259.53
